Accueil
METAR-TAF:

METAR-TAF

Aéroports :

Base aérienne 116 Luxeuil-Saint Sauveur

Luxeuil-les-Bains, France

latitude: 47-47N, longitude: 006-21E, altitude: 278 m

Observation

Le bulletin a été fait il y a 34 minutes, à 22:00 UTC
Vent 7 kt de sud-est
Température 2°C
Humidité 80%
Pression 1006 hPa
Visibilité: 9000 m

METAR: LFSX 202200Z AUTO 13007KT 9000 NSC 02/M01 Q1006 NOSIG

Heure: 23:34 (22:34 UTC)

Prévision

Le bulletin a été fait il y a 2 heures et 34 minutes, à 20:00 UTC
Prévision valable du 20 à 21 UTC au 21 à 21 UTC
Vent 15 kt de sud-est
Visibilité: 9000 m
Temporairement
du 21 à 00 UTC au 21 à 08 UTC
Visibilité: 4500 m
Nuages épars à une hauteur de 1500 ft
pluie faible, neige
Evoluant progressivement
du 21 à 03 UTC au 21 à 05 UTC
Vent 5 kt de est

TAF: LFSX 202000Z 2021/2121 14015KT 9000 NSC TEMPO 2100/2108 4500 -RASN SCT015 BECMG 2103/2105 10005KT

Observations et prévisions météorologiques de plus de 4000 aéroports (messages METAR et TAF).

Les stations disponibles sont représentées par des disques jaunes et rouges sur la carte.

Passer la souris dessus pour voir le nom de la station.

Cliquer dessus pour voir les observations et prévisions météorologiques.

Pour changer de carte: cliquez sur les boutons verts avec une croix noire pour zoomer, sur le bouton vert avec un tiret pour effectuer un zoom arrière, ou sur les flèches vertes pour les cartes adjacentes.


METAR-TAF: